Главная страница
METAR-TAF:

METAR-TAF

Аэропорты :

Нью-Хейвен, Коннектикут, США

широта: 41-15-50N, долгота: 072-53-14W, высота над уровнем моря: 4 м

Текущие метеонаблюдения

Эта сводка был подготовлена 1 час и 0 минут назад, в 20:53 UTC
Ветер 8 Узел от южный
Температура 18°C
Влажность 77%
Давление 1015 hPa
Видимость: 16.1 км
Отдельные облака на высоте 5000 фута
Рассеянная облачность на высоте 10000 фута
Рассеянная облачность на высоте 12000 фута

METAR: KHVN 232053Z 17008KT 10SM SCT050 BKN100 BKN120 18/14 A2996 RMK AO2 PRESFR SLP143 T01780139 58041

Время: 17:53 (21:53 UTC)


TAF: отсутствует

Метеонаблюдения и прогнозы для более 4000 аэропортов (сводки METAR и TAF).

Имеющиеся станции представлены на карте желтыми и красными точками.

Чтобы увидеть название станции, наведите на нее мышь.

Затем щелкните, чтобы увидеть метеонаблюдения и метеопрогнозы.

Управление картой: чтобы увеличить масштаб, щелкните зеленые кнопки с черным крестиком; чтобы уменьшить масштаб, щелкните зеленую кнопку с тире; для просмотра соседних карт щелкайте зеленые стрелки.


METAR-TAF: